createdAt,value
2017-10-21T00:00:32.256Z,1008.16
2017-10-21T00:01:32.259Z,1008.18
2017-10-21T00:02:32.248Z,1008.16
2017-10-21T00:03:32.258Z,1008.20
2017-10-21T00:04:32.237Z,1008.20
2017-10-21T00:05:32.234Z,1008.22
2017-10-21T00:06:32.230Z,1008.18
2017-10-21T00:07:32.223Z,1008.24
2017-10-21T00:08:32.218Z,1008.20
2017-10-21T00:09:32.214Z,1008.21
2017-10-21T00:10:32.212Z,1008.28
2017-10-21T00:11:32.202Z,1008.33
2017-10-21T00:12:32.198Z,1008.34
2017-10-21T00:13:32.193Z,1008.34
2017-10-21T00:14:32.187Z,1008.36
2017-10-21T00:15:32.187Z,1008.34
2017-10-21T00:16:32.176Z,1008.34
2017-10-21T00:17:32.173Z,1008.32
2017-10-21T00:18:32.167Z,1008.27
2017-10-21T00:19:32.166Z,1008.24
2017-10-21T00:20:32.155Z,1008.23
2017-10-21T00:21:32.150Z,1008.25
2017-10-21T00:22:32.144Z,1008.24
2017-10-21T00:23:32.153Z,1008.28
2017-10-21T00:24:32.139Z,1008.30
2017-10-21T00:25:32.132Z,1008.36
2017-10-21T00:26:32.124Z,1008.28
2017-10-21T00:27:32.120Z,1008.31
2017-10-21T00:28:32.119Z,1008.35
2017-10-21T00:29:32.111Z,1008.35
2017-10-21T00:30:32.113Z,1008.36
2017-10-21T00:31:32.099Z,1008.35
2017-10-21T00:32:32.095Z,1008.35
2017-10-21T00:33:32.093Z,1008.30
2017-10-21T00:34:32.074Z,1008.27
2017-10-21T00:35:32.082Z,1008.28
2017-10-21T00:36:32.076Z,1008.27
2017-10-21T00:37:32.067Z,1008.27
2017-10-21T00:38:32.062Z,1008.27
2017-10-21T00:39:32.058Z,1008.28
2017-10-21T00:40:32.052Z,1008.29
2017-10-21T00:41:32.055Z,1008.29
2017-10-21T00:42:32.045Z,1008.25
2017-10-21T00:43:32.042Z,1008.25
2017-10-21T00:44:32.027Z,1008.21
2017-10-21T00:45:32.027Z,1008.20
2017-10-21T00:46:32.022Z,1008.16
2017-10-21T00:47:32.013Z,1008.17
2017-10-21T00:48:32.010Z,1008.13
2017-10-21T00:49:32.009Z,1008.13
2017-10-21T00:50:32.003Z,1008.07
2017-10-21T00:51:31.998Z,1008.08
2017-10-21T00:52:31.988Z,1008.05
2017-10-21T00:53:31.982Z,1008.03
2017-10-21T00:54:31.978Z,1007.99
2017-10-21T00:55:31.976Z,1007.92
2017-10-21T00:56:31.977Z,1007.83
2017-10-21T00:57:31.964Z,1007.82
2017-10-21T00:58:31.954Z,1007.77
2017-10-21T00:59:31.951Z,1007.71
2017-10-21T01:00:31.945Z,1007.73
2017-10-21T01:01:31.942Z,1007.75
2017-10-21T01:02:31.936Z,1007.82
2017-10-21T01:03:31.941Z,1007.94
2017-10-21T01:04:31.924Z,1008.04
2017-10-21T01:05:31.924Z,1008.08
2017-10-21T01:06:31.915Z,1008.10
2017-10-21T01:07:31.909Z,1008.07
2017-10-21T01:08:31.904Z,1008.04
2017-10-21T01:09:31.903Z,1007.99
2017-10-21T01:10:31.894Z,1007.97
2017-10-21T01:11:31.887Z,1007.95
2017-10-21T01:12:31.884Z,1007.97
2017-10-21T01:13:31.878Z,1007.98
2017-10-21T01:14:31.874Z,1007.96
2017-10-21T01:15:31.870Z,1007.98
2017-10-21T01:16:31.863Z,1007.97
2017-10-21T01:17:31.857Z,1007.95
2017-10-21T01:18:31.857Z,1007.95
2017-10-21T01:19:31.851Z,1007.97
2017-10-21T01:20:31.853Z,1007.95
2017-10-21T01:21:31.845Z,1007.95
2017-10-21T01:22:31.846Z,1007.94
2017-10-21T01:23:31.827Z,1007.91
2017-10-21T01:24:31.836Z,1007.93
2017-10-21T01:25:31.817Z,1007.97
2017-10-21T01:26:31.810Z,1007.90
2017-10-21T01:27:31.805Z,1007.89
2017-10-21T01:28:31.806Z,1007.90
2017-10-21T01:29:31.789Z,1007.92
2017-10-21T01:30:31.792Z,1007.89
2017-10-21T01:31:31.782Z,1007.87
2017-10-21T01:32:31.786Z,1007.82
2017-10-21T01:33:31.775Z,1007.83
2017-10-21T01:34:31.768Z,1007.79
2017-10-21T01:35:31.762Z,1007.79
2017-10-21T01:36:31.778Z,1007.73
2017-10-21T01:37:31.756Z,1007.70
2017-10-21T01:38:31.743Z,1007.70
2017-10-21T01:39:31.763Z,1007.66
2017-10-21T01:40:31.739Z,1007.64
2017-10-21T01:41:31.737Z,1007.66
2017-10-21T01:42:31.718Z,1007.69
2017-10-21T01:43:31.713Z,1007.70
2017-10-21T01:44:31.714Z,1007.71
2017-10-21T01:45:31.707Z,1007.73
2017-10-21T01:46:31.705Z,1007.73
2017-10-21T01:47:31.700Z,1007.73
2017-10-21T01:48:31.692Z,1007.72
2017-10-21T01:49:31.689Z,1007.73
2017-10-21T01:50:31.685Z,1007.70
2017-10-21T01:51:31.680Z,1007.70
2017-10-21T01:52:31.673Z,1007.74
2017-10-21T01:53:31.667Z,1007.74
2017-10-21T01:54:31.659Z,1007.79
2017-10-21T01:55:31.656Z,1007.80
2017-10-21T01:56:31.668Z,1007.79
2017-10-21T01:57:31.656Z,1007.76
2017-10-21T01:58:31.639Z,1007.74
2017-10-21T01:59:31.637Z,1007.74
2017-10-21T02:00:31.636Z,1007.74
2017-10-21T02:01:31.627Z,1007.71
2017-10-21T02:02:31.621Z,1007.72
2017-10-21T02:03:31.616Z,1007.68
2017-10-21T02:04:31.610Z,1007.76
2017-10-21T02:05:31.602Z,1007.77
2017-10-21T02:06:31.600Z,1007.75
2017-10-21T02:07:31.593Z,1007.73
2017-10-21T02:08:31.586Z,1007.71
2017-10-21T02:09:31.585Z,1007.70
2017-10-21T02:10:31.579Z,1007.65
2017-10-21T02:11:31.572Z,1007.64
2017-10-21T02:12:31.571Z,1007.63
2017-10-21T02:13:31.564Z,1007.67
2017-10-21T02:14:31.556Z,1007.59
2017-10-21T02:15:31.554Z,1007.58
2017-10-21T02:16:31.549Z,1007.55
2017-10-21T02:17:31.545Z,1007.56
2017-10-21T02:18:31.534Z,1007.58
2017-10-21T02:19:31.530Z,1007.57
2017-10-21T02:20:31.524Z,1007.57
2017-10-21T02:21:31.521Z,1007.60
2017-10-21T02:22:31.515Z,1007.61
2017-10-21T02:23:31.509Z,1007.56
2017-10-21T02:24:31.505Z,1007.53
2017-10-21T02:25:31.499Z,1007.52
2017-10-21T02:26:31.491Z,1007.50
2017-10-21T02:27:31.486Z,1007.50
2017-10-21T02:28:31.486Z,1007.51
2017-10-21T02:29:31.478Z,1007.49
2017-10-21T02:30:31.474Z,1007.53
2017-10-21T02:31:31.467Z,1007.49
2017-10-21T02:32:31.479Z,1007.52
2017-10-21T02:33:31.464Z,1007.47
2017-10-21T02:34:31.457Z,1007.50
2017-10-21T02:35:31.446Z,1007.51
2017-10-21T02:36:31.440Z,1007.51
2017-10-21T02:37:31.435Z,1007.51
2017-10-21T02:38:31.433Z,1007.52
2017-10-21T02:39:31.434Z,1007.57
2017-10-21T02:40:31.420Z,1007.55
2017-10-21T02:41:31.409Z,1007.57
2017-10-21T02:42:31.407Z,1007.59
2017-10-21T02:43:31.401Z,1007.62
2017-10-21T02:44:31.397Z,1007.60
2017-10-21T02:45:31.392Z,1007.60
2017-10-21T02:46:31.382Z,1007.61
2017-10-21T02:47:31.378Z,1007.58
2017-10-21T02:48:31.375Z,1007.58
2017-10-21T02:49:31.370Z,1007.54
2017-10-21T02:50:31.363Z,1007.52
2017-10-21T02:51:31.356Z,1007.51
2017-10-21T02:52:31.359Z,1007.52
2017-10-21T02:53:31.347Z,1007.54
2017-10-21T02:54:31.345Z,1007.53
2017-10-21T02:55:31.335Z,1007.54
2017-10-21T02:56:31.330Z,1007.59
2017-10-21T02:57:31.326Z,1007.55
2017-10-21T02:58:31.319Z,1007.57
2017-10-21T02:59:31.312Z,1007.55
2017-10-21T03:00:31.307Z,1007.55
2017-10-21T03:01:31.308Z,1007.53
2017-10-21T03:02:31.301Z,1007.54
2017-10-21T03:03:31.308Z,1007.56
2017-10-21T03:04:31.288Z,1007.59
2017-10-21T03:05:31.280Z,1007.56
2017-10-21T03:06:31.273Z,1007.56
2017-10-21T03:07:31.278Z,1007.58
2017-10-21T03:08:31.264Z,1007.59
2017-10-21T03:09:31.262Z,1007.57
2017-10-21T03:10:31.253Z,1007.55
2017-10-21T03:11:31.248Z,1007.57
2017-10-21T03:12:31.240Z,1007.55
2017-10-21T03:13:31.235Z,1007.53
2017-10-21T03:14:31.229Z,1007.55
2017-10-21T03:15:31.226Z,1007.52
2017-10-21T03:16:31.224Z,1007.53
2017-10-21T03:17:31.211Z,1007.50
2017-10-21T03:18:31.208Z,1007.53
2017-10-21T03:19:31.201Z,1007.49
2017-10-21T03:20:31.201Z,1007.49
2017-10-21T03:21:31.190Z,1007.49
2017-10-21T03:22:31.183Z,1007.46
2017-10-21T03:23:31.191Z,1007.44
2017-10-21T03:24:31.174Z,1007.45
2017-10-21T03:25:31.987Z,1007.45
2017-10-21T03:26:31.163Z,1007.50
2017-10-21T03:27:31.153Z,1007.50
2017-10-21T03:28:31.309Z,1007.54
2017-10-21T03:29:31.149Z,1007.51
2017-10-21T03:30:31.142Z,1007.51
2017-10-21T03:31:31.138Z,1007.48
2017-10-21T03:32:31.130Z,1007.49
2017-10-21T03:33:31.124Z,1007.52
2017-10-21T03:34:31.120Z,1007.53
2017-10-21T03:35:31.116Z,1007.47
2017-10-21T03:36:31.109Z,1007.47
2017-10-21T03:37:31.103Z,1007.41
2017-10-21T03:38:31.095Z,1007.40
2017-10-21T03:39:31.093Z,1007.43
2017-10-21T03:40:31.086Z,1007.36
2017-10-21T03:41:31.077Z,1007.36
2017-10-21T03:42:31.079Z,1007.36
2017-10-21T03:43:31.069Z,1007.39
2017-10-21T03:44:31.063Z,1007.40
2017-10-21T03:45:31.126Z,1007.42
2017-10-21T03:46:31.055Z,1007.42
2017-10-21T03:47:31.045Z,1007.42
2017-10-21T03:48:31.040Z,1007.39
2017-10-21T03:49:31.035Z,1007.40
2017-10-21T03:50:31.031Z,1007.37
2017-10-21T03:51:31.029Z,1007.33
2017-10-21T03:52:31.019Z,1007.32
2017-10-21T03:53:31.018Z,1007.35
2017-10-21T03:54:31.005Z,1007.34
2017-10-21T03:55:31.016Z,1007.34
2017-10-21T03:56:30.996Z,1007.34
2017-10-21T03:57:30.995Z,1007.31
2017-10-21T03:58:31.001Z,1007.34
2017-10-21T03:59:30.979Z,1007.33
2017-10-21T04:00:30.974Z,1007.34
2017-10-21T04:01:30.973Z,1007.34
2017-10-21T04:02:30.962Z,1007.37
2017-10-21T04:03:30.956Z,1007.36
2017-10-21T04:04:30.959Z,1007.36
2017-10-21T04:05:30.945Z,1007.34
2017-10-21T04:06:30.940Z,1007.27
2017-10-21T04:07:30.935Z,1007.31
2017-10-21T04:08:30.928Z,1007.28
2017-10-21T04:09:30.925Z,1007.26
2017-10-21T04:10:30.922Z,1007.30
2017-10-21T04:11:30.913Z,1007.30
2017-10-21T04:12:30.910Z,1007.30
2017-10-21T04:13:30.913Z,1007.30
2017-10-21T04:14:30.897Z,1007.29
2017-10-21T04:15:30.894Z,1007.27
2017-10-21T04:16:30.885Z,1007.31
2017-10-21T04:17:30.879Z,1007.31
2017-10-21T04:18:30.873Z,1007.33
2017-10-21T04:19:30.867Z,1007.33
2017-10-21T04:20:30.866Z,1007.37
2017-10-21T04:21:30.859Z,1007.40
2017-10-21T04:22:30.850Z,1007.41
2017-10-21T04:23:30.846Z,1007.45
2017-10-21T04:24:30.842Z,1007.50
2017-10-21T04:25:30.848Z,1007.40
2017-10-21T04:26:30.835Z,1007.43
2017-10-21T04:27:30.829Z,1007.45
2017-10-21T04:28:30.809Z,1007.44
2017-10-21T04:29:30.817Z,1007.38
2017-10-21T04:30:30.808Z,1007.40
2017-10-21T04:31:30.804Z,1007.38
2017-10-21T04:32:30.804Z,1007.37
2017-10-21T04:33:30.800Z,1007.38
2017-10-21T04:34:30.790Z,1007.39
2017-10-21T04:35:30.780Z,1007.39
2017-10-21T04:36:30.780Z,1007.37
2017-10-21T04:37:30.771Z,1007.35
2017-10-21T04:38:30.763Z,1007.34
2017-10-21T04:39:30.758Z,1007.33
2017-10-21T04:40:30.751Z,1007.28
2017-10-21T04:41:30.749Z,1007.31
2017-10-21T04:42:30.743Z,1007.34
2017-10-21T04:43:30.741Z,1007.29
2017-10-21T04:44:30.733Z,1007.30
2017-10-21T04:45:30.730Z,1007.31
2017-10-21T04:46:30.721Z,1007.30
2017-10-21T04:47:30.720Z,1007.33
2017-10-21T04:48:30.721Z,1007.33
2017-10-21T04:49:32.580Z,1007.31
2017-10-21T04:50:30.697Z,1007.29
2017-10-21T04:51:30.700Z,1007.31
2017-10-21T04:52:30.698Z,1007.28
2017-10-21T04:53:30.682Z,1007.25
2017-10-21T04:54:30.668Z,1007.23
2017-10-21T04:55:31.511Z,1007.28
2017-10-21T04:56:30.661Z,1007.27
2017-10-21T04:57:31.509Z,1007.28
2017-10-21T04:58:30.657Z,1007.28
2017-10-21T04:59:30.654Z,1007.28
2017-10-21T05:00:30.651Z,1007.27
2017-10-21T05:01:30.651Z,1007.25
2017-10-21T05:02:30.635Z,1007.21
2017-10-21T05:03:30.626Z,1007.25
2017-10-21T05:04:30.623Z,1007.24
2017-10-21T05:05:30.614Z,1007.23
2017-10-21T05:06:30.609Z,1007.26
2017-10-21T05:07:30.604Z,1007.22
2017-10-21T05:08:30.596Z,1007.21
2017-10-21T05:09:30.596Z,1007.17
2017-10-21T05:10:30.588Z,1007.13
2017-10-21T05:11:30.587Z,1007.08
2017-10-21T05:12:30.575Z,1007.08
2017-10-21T05:13:30.572Z,1007.04
2017-10-21T05:14:30.564Z,1007.07
2017-10-21T05:15:30.558Z,1007.12
2017-10-21T05:16:30.552Z,1007.14
2017-10-21T05:17:30.550Z,1007.15
2017-10-21T05:18:30.543Z,1007.16
2017-10-21T05:19:30.536Z,1007.15
2017-10-21T05:20:30.530Z,1007.12
2017-10-21T05:21:30.531Z,1007.10
2017-10-21T05:22:30.521Z,1007.08
2017-10-21T05:23:30.513Z,1007.10
2017-10-21T05:24:30.516Z,1007.04
2017-10-21T05:25:30.504Z,1006.99
2017-10-21T05:26:30.508Z,1006.99
2017-10-21T05:27:30.498Z,1006.98
2017-10-21T05:28:30.484Z,1006.96
2017-10-21T05:29:30.480Z,1006.95
2017-10-21T05:30:30.479Z,1006.90
2017-10-21T05:31:30.469Z,1006.89
2017-10-21T05:32:30.467Z,1006.90
2017-10-21T05:33:30.460Z,1006.90
2017-10-21T05:34:30.454Z,1006.85
2017-10-21T05:35:30.452Z,1006.93
2017-10-21T05:36:30.443Z,1006.88
2017-10-21T05:37:30.438Z,1006.92
2017-10-21T05:38:30.429Z,1006.90
2017-10-21T05:39:30.425Z,1006.95
2017-10-21T05:40:30.414Z,1006.96
2017-10-21T05:41:30.414Z,1006.94
2017-10-21T05:42:30.409Z,1006.94
2017-10-21T05:43:30.403Z,1006.96
2017-10-21T05:44:30.397Z,1006.94
2017-10-21T05:45:30.393Z,1006.95
2017-10-21T05:46:30.385Z,1007.02
2017-10-21T05:47:30.381Z,1007.01
2017-10-21T05:48:30.375Z,1007.01
2017-10-21T05:49:30.370Z,1007.05
2017-10-21T05:50:30.357Z,1007.09
2017-10-21T05:51:30.359Z,1007.10
2017-10-21T05:52:30.358Z,1007.11
2017-10-21T05:53:30.348Z,1007.06
2017-10-21T05:54:30.345Z,1007.07
2017-10-21T05:55:30.339Z,1007.08
2017-10-21T05:56:30.332Z,1007.07
2017-10-21T05:57:30.330Z,1007.08
2017-10-21T05:58:30.319Z,1007.08
2017-10-21T05:59:30.314Z,1007.14
2017-10-21T06:00:30.315Z,1007.16
2017-10-21T06:01:30.307Z,1007.20
2017-10-21T06:02:30.299Z,1007.21
2017-10-21T06:03:30.293Z,1007.28
2017-10-21T06:04:30.290Z,1007.28
2017-10-21T06:05:30.284Z,1007.26
2017-10-21T06:06:30.276Z,1007.21
2017-10-21T06:07:30.270Z,1007.19
2017-10-21T06:08:30.267Z,1007.11
2017-10-21T06:09:30.263Z,1007.07
2017-10-21T06:10:30.252Z,1007.09
2017-10-21T06:11:30.249Z,1007.09
2017-10-21T06:12:30.248Z,1007.07
2017-10-21T06:13:30.240Z,1007.08
2017-10-21T06:14:30.246Z,1007.13
2017-10-21T06:15:30.231Z,1007.14
2017-10-21T06:16:30.225Z,1007.13
2017-10-21T06:17:30.221Z,1007.18
2017-10-21T06:18:30.215Z,1007.21
2017-10-21T06:19:30.209Z,1007.24
2017-10-21T06:20:30.202Z,1007.24
2017-10-21T06:21:30.197Z,1007.20
2017-10-21T06:22:30.205Z,1007.22
2017-10-21T06:23:30.184Z,1007.22
2017-10-21T06:24:30.178Z,1007.21
2017-10-21T06:25:30.175Z,1007.25
2017-10-21T06:26:30.169Z,1007.23
2017-10-21T06:27:30.164Z,1007.18
2017-10-21T06:28:30.157Z,1007.18
2017-10-21T06:29:30.154Z,1007.18
2017-10-21T06:30:30.145Z,1007.22
2017-10-21T06:31:30.142Z,1007.22
2017-10-21T06:32:30.135Z,1007.26
2017-10-21T06:33:30.128Z,1007.28
2017-10-21T06:34:30.129Z,1007.29
2017-10-21T06:35:30.120Z,1007.26
2017-10-21T06:36:30.117Z,1007.24
2017-10-21T06:37:30.109Z,1007.19
2017-10-21T06:38:30.102Z,1007.22
2017-10-21T06:39:30.099Z,1007.18
2017-10-21T06:40:30.092Z,1007.12
2017-10-21T06:41:30.095Z,1007.09
2017-10-21T06:42:30.078Z,1007.11
2017-10-21T06:43:30.076Z,1007.12
2017-10-21T06:44:30.069Z,1007.06
2017-10-21T06:45:30.070Z,1007.01
2017-10-21T06:46:30.059Z,1007.02
2017-10-21T06:47:30.054Z,1007.04
2017-10-21T06:48:30.049Z,1007.00
2017-10-21T06:49:30.045Z,1007.06
2017-10-21T06:50:30.036Z,1007.09
2017-10-21T06:51:30.026Z,1007.12
2017-10-21T06:52:30.042Z,1007.13
2017-10-21T06:53:30.026Z,1007.13
2017-10-21T06:54:30.018Z,1007.11
2017-10-21T06:55:30.013Z,1007.15
2017-10-21T06:56:30.005Z,1007.16
2017-10-21T06:57:30.013Z,1007.22
2017-10-21T06:58:29.996Z,1007.24
2017-10-21T06:59:29.993Z,1007.22
2017-10-21T07:00:29.986Z,1007.25
2017-10-21T07:01:29.982Z,1007.23
2017-10-21T07:02:29.976Z,1007.20
2017-10-21T07:03:29.969Z,1007.12
2017-10-21T07:04:29.965Z,1007.13
2017-10-21T07:05:29.962Z,1007.11
2017-10-21T07:06:29.958Z,1007.10
2017-10-21T07:07:29.961Z,1007.11
2017-10-21T07:08:29.944Z,1007.13
2017-10-21T07:09:29.943Z,1007.10
2017-10-21T07:10:29.933Z,1007.16
2017-10-21T07:11:29.929Z,1007.16
2017-10-21T07:12:29.925Z,1007.15
2017-10-21T07:13:29.921Z,1007.14
2017-10-21T07:14:29.914Z,1007.12
2017-10-21T07:15:29.910Z,1007.13
2017-10-21T07:16:29.905Z,1007.15
2017-10-21T07:17:29.906Z,1007.10
2017-10-21T07:18:29.893Z,1007.13
2017-10-21T07:19:29.889Z,1007.15
2017-10-21T07:20:29.879Z,1007.17
2017-10-21T07:21:29.884Z,1007.19
2017-10-21T07:22:29.879Z,1007.19
2017-10-21T07:23:29.868Z,1007.15
2017-10-21T07:24:29.867Z,1007.14
2017-10-21T07:25:29.859Z,1007.16
2017-10-21T07:26:29.851Z,1007.15
2017-10-21T07:27:29.846Z,1007.16
2017-10-21T07:28:29.833Z,1007.08
2017-10-21T07:29:29.840Z,1007.09
2017-10-21T07:30:29.839Z,1007.10
2017-10-21T07:31:29.833Z,1007.11
2017-10-21T07:32:29.824Z,1007.08
2017-10-21T07:33:29.822Z,1007.10
2017-10-21T07:34:29.813Z,1007.11
2017-10-21T07:35:29.808Z,1007.09
2017-10-21T07:36:29.803Z,1007.05
2017-10-21T07:37:29.798Z,1007.04
2017-10-21T07:38:29.794Z,1007.04
2017-10-21T07:39:29.794Z,1007.06
2017-10-21T07:40:29.784Z,1007.02
2017-10-21T07:41:29.784Z,1007.00
2017-10-21T07:42:29.776Z,1007.01
2017-10-21T07:43:29.771Z,1007.02
2017-10-21T07:44:29.775Z,1007.01
2017-10-21T07:45:29.757Z,1007.01
2017-10-21T07:46:29.755Z,1007.04
2017-10-21T07:47:29.750Z,1007.04
2017-10-21T07:48:29.758Z,1007.04
2017-10-21T07:49:29.742Z,1007.07
2017-10-21T07:50:29.738Z,1007.08
2017-10-21T07:51:29.731Z,1007.05
2017-10-21T07:52:29.727Z,1007.03
2017-10-21T07:53:29.723Z,1007.02
2017-10-21T07:54:29.717Z,1007.02
2017-10-21T07:55:29.712Z,1006.99
2017-10-21T07:56:29.709Z,1006.95
2017-10-21T07:57:29.707Z,1006.97
2017-10-21T07:58:29.698Z,1006.98
2017-10-21T07:59:29.694Z,1006.98
2017-10-21T08:00:29.691Z,1006.99
2017-10-21T08:01:29.687Z,1006.97
2017-10-21T08:02:29.681Z,1006.97
2017-10-21T08:03:29.675Z,1007.01
2017-10-21T08:04:29.668Z,1007.04
2017-10-21T08:05:29.667Z,1006.97
2017-10-21T08:06:29.662Z,1007.02
2017-10-21T08:07:29.661Z,1007.01
2017-10-21T08:08:29.653Z,1007.02
2017-10-21T08:09:29.648Z,1007.06
2017-10-21T08:10:29.644Z,1007.05
2017-10-21T08:11:29.849Z,1007.03
2017-10-21T08:12:29.635Z,1007.08
2017-10-21T08:13:29.633Z,1007.05
2017-10-21T08:14:29.626Z,1007.02
2017-10-21T08:15:29.620Z,1007.04
2017-10-21T08:16:29.618Z,1007.02
2017-10-21T08:17:29.622Z,1007.05
2017-10-21T08:18:29.606Z,1007.05
2017-10-21T08:19:29.605Z,1006.96
2017-10-21T08:20:29.625Z,1007.00
2017-10-21T08:21:29.592Z,1007.01
2017-10-21T08:22:29.592Z,1007.01
2017-10-21T08:23:29.582Z,1007.01
2017-10-21T08:24:29.584Z,1007.00
2017-10-21T08:25:29.574Z,1006.93
2017-10-21T08:26:29.579Z,1006.95
2017-10-21T08:27:29.573Z,1006.92
2017-10-21T08:28:29.568Z,1006.87
2017-10-21T08:29:29.565Z,1006.83
2017-10-21T08:30:29.560Z,1006.87
2017-10-21T08:31:29.556Z,1006.86
2017-10-21T08:32:29.553Z,1006.81
2017-10-21T08:33:29.548Z,1006.85
2017-10-21T08:34:29.542Z,1006.81
2017-10-21T08:35:29.550Z,1006.78
2017-10-21T08:36:29.542Z,1006.80
2017-10-21T08:37:29.534Z,1006.81
2017-10-21T08:38:29.527Z,1006.82
2017-10-21T08:39:29.526Z,1006.81
2017-10-21T08:40:29.517Z,1006.84
2017-10-21T08:41:29.510Z,1006.85
2017-10-21T08:42:29.505Z,1006.85
2017-10-21T08:43:29.502Z,1006.88
2017-10-21T08:44:29.500Z,1006.90
2017-10-21T08:45:29.505Z,1006.85
2017-10-21T08:46:29.495Z,1006.88
2017-10-21T08:47:29.514Z,1006.87
2017-10-21T08:48:29.492Z,1006.86
2017-10-21T08:49:29.489Z,1006.85
2017-10-21T08:50:29.484Z,1006.91
2017-10-21T08:51:29.474Z,1006.88
2017-10-21T08:52:29.480Z,1006.95
2017-10-21T08:53:29.473Z,1006.94
2017-10-21T08:54:29.467Z,1006.95
2017-10-21T08:55:29.462Z,1007.02
2017-10-21T08:56:29.462Z,1006.97
2017-10-21T08:57:29.469Z,1006.95
2017-10-21T08:58:29.457Z,1006.97
2017-10-21T09:02:13.629Z,1006.93
2017-10-21T09:03:13.606Z,1006.89
2017-10-21T09:05:06.565Z,1006.86
2017-10-21T09:06:06.481Z,1006.81
2017-10-21T09:07:59.421Z,1006.82
2017-10-21T09:08:59.339Z,1006.81
2017-10-21T09:10:52.217Z,1006.89
2017-10-21T09:11:52.207Z,1006.85
2017-10-21T09:13:45.096Z,1006.88
2017-10-21T09:14:45.088Z,1006.86
2017-10-21T09:16:37.959Z,1006.81
2017-10-21T09:17:37.961Z,1006.81
2017-10-21T09:18:37.931Z,1006.88
2017-10-21T09:19:37.950Z,1006.84
2017-10-21T09:20:37.928Z,1006.82
2017-10-21T09:21:37.943Z,1006.84
2017-10-21T09:22:37.922Z,1006.74
2017-10-21T09:23:37.920Z,1006.72
2017-10-21T09:24:37.912Z,1006.66
2017-10-21T09:25:37.913Z,1006.65
2017-10-21T09:26:37.908Z,1006.59
2017-10-21T09:27:37.904Z,1006.61
2017-10-21T09:28:37.918Z,1006.59
2017-10-21T09:29:37.903Z,1006.60
2017-10-21T09:30:37.897Z,1006.52
2017-10-21T09:31:37.897Z,1006.53
2017-10-21T09:32:37.893Z,1006.51
2017-10-21T09:33:37.890Z,1006.53
2017-10-21T09:34:37.887Z,1006.59
2017-10-21T09:35:37.897Z,1006.60
2017-10-21T09:36:37.895Z,1006.55
2017-10-21T09:37:37.897Z,1006.54
2017-10-21T09:38:37.875Z,1006.59
2017-10-21T09:39:37.878Z,1006.61
2017-10-21T09:40:37.858Z,1006.68
2017-10-21T09:41:37.879Z,1006.67
2017-10-21T09:42:37.901Z,1006.65
2017-10-21T11:05:12.173Z,1006.23
2017-10-21T11:06:12.126Z,1006.24
2017-10-21T11:08:05.045Z,1006.17
2017-10-21T11:09:05.028Z,1006.13
2017-10-21T11:10:57.892Z,1006.13
2017-10-21T11:11:57.894Z,1006.11
2017-10-21T11:13:50.774Z,1006.10
2017-10-21T11:14:50.755Z,1006.10
2017-10-21T11:15:50.760Z,1006.08
2017-10-21T11:16:50.748Z,1006.13
2017-10-21T11:17:50.769Z,1006.06
2017-10-21T11:18:50.745Z,1005.98
2017-10-21T11:19:50.733Z,1006.02
2017-10-21T11:20:50.730Z,1006.05
2017-10-21T11:21:50.741Z,1006.08
2017-10-21T11:22:50.735Z,1006.02
2017-10-21T11:23:50.735Z,1006.02
2017-10-21T12:23:57.526Z,1005.98
2017-10-21T12:24:57.503Z,1005.94
2017-10-21T12:26:50.360Z,1005.96
2017-10-21T12:27:50.352Z,1006.01
2017-10-21T12:29:43.234Z,1005.95
2017-10-21T12:30:43.208Z,1005.95
2017-10-21T12:32:36.105Z,1005.98
2017-10-21T12:33:36.064Z,1005.98
2017-10-21T12:34:36.063Z,1005.94
2017-10-21T12:35:36.055Z,1005.98
2017-10-21T12:36:36.056Z,1005.96
2017-10-21T12:37:36.068Z,1005.99
2017-10-21T12:38:36.065Z,1005.96
2017-10-21T12:39:36.046Z,1006.00
2017-10-21T12:40:36.043Z,1006.00
2017-10-21T12:41:36.042Z,1006.01
2017-10-21T12:42:36.039Z,1005.99
2017-10-21T12:43:36.038Z,1005.95
2017-10-21T12:44:36.033Z,1006.01
2017-10-21T12:45:36.029Z,1006.04
2017-10-21T12:46:36.033Z,1006.02
2017-10-21T12:47:36.030Z,1006.04
2017-10-21T12:48:36.015Z,1006.00
2017-10-21T12:49:36.026Z,1006.01
2017-10-21T12:50:36.031Z,1006.02
2017-10-21T12:51:36.021Z,1006.02
2017-10-21T12:52:36.031Z,1006.00
2017-10-21T12:53:36.021Z,1005.99
2017-10-21T12:54:36.017Z,1005.99
2017-10-21T12:55:36.017Z,1005.93
2017-10-21T12:56:36.010Z,1005.98
2017-10-21T12:57:36.012Z,1005.97
2017-10-21T12:58:36.035Z,1005.96
2017-10-21T12:59:36.008Z,1005.97
2017-10-21T13:00:36.005Z,1005.94
2017-10-21T13:01:36.006Z,1005.99
2017-10-21T13:02:36.004Z,1005.95
2017-10-21T13:03:36.007Z,1005.95
2017-10-21T13:04:36.002Z,1005.95
2017-10-21T13:05:35.999Z,1005.98
2017-10-21T13:06:36.002Z,1005.96
2017-10-21T13:07:35.999Z,1005.94
2017-10-21T13:08:36.000Z,1005.97
2017-10-21T13:09:35.991Z,1005.99
2017-10-21T13:10:35.992Z,1005.98
2017-10-21T13:11:35.985Z,1005.99
2017-10-21T13:12:35.988Z,1005.96
2017-10-21T13:13:35.991Z,1005.95
2017-10-21T13:14:35.988Z,1005.88
2017-10-21T13:15:35.985Z,1005.93
2017-10-21T13:16:35.986Z,1005.95
2017-10-21T13:17:35.991Z,1005.96
2017-10-21T13:18:35.985Z,1005.93
2017-10-21T13:19:35.984Z,1005.94
2017-10-21T13:20:35.982Z,1005.89
2017-10-21T13:21:35.983Z,1005.87
2017-10-21T13:22:35.978Z,1005.90
2017-10-21T13:23:35.978Z,1005.86
2017-10-21T13:24:35.977Z,1005.86
2017-10-21T13:25:35.980Z,1005.82
2017-10-21T13:26:35.975Z,1005.85
2017-10-21T13:27:35.977Z,1005.81
2017-10-21T13:28:35.973Z,1005.85
2017-10-21T13:29:35.975Z,1005.90
2017-10-21T13:30:35.972Z,1005.86
2017-10-21T13:31:35.972Z,1005.86
2017-10-21T13:32:35.974Z,1005.81
2017-10-21T13:33:35.970Z,1005.84
2017-10-21T13:34:35.970Z,1005.84
2017-10-21T13:35:35.969Z,1005.81
2017-10-21T13:36:35.971Z,1005.81
2017-10-21T13:37:35.965Z,1005.79
2017-10-21T13:38:35.966Z,1005.84
2017-10-21T13:39:35.969Z,1005.84
2017-10-21T13:40:35.964Z,1005.82
2017-10-21T13:41:35.962Z,1005.89
2017-10-21T13:42:35.960Z,1005.88
2017-10-21T13:43:35.962Z,1005.82
2017-10-21T13:44:35.962Z,1005.83
2017-10-21T13:45:35.961Z,1005.84
2017-10-21T13:46:35.959Z,1005.81
2017-10-21T13:47:35.963Z,1005.83
2017-10-21T13:48:35.957Z,1005.78
2017-10-21T13:49:35.964Z,1005.77
2017-10-21T13:50:35.965Z,1005.79
2017-10-21T13:51:35.965Z,1005.77
2017-10-21T13:52:35.954Z,1005.74
2017-10-21T13:53:35.954Z,1005.65
2017-10-21T13:54:35.951Z,1005.62
2017-10-21T13:55:35.955Z,1005.67
2017-10-21T13:56:35.949Z,1005.70
2017-10-21T13:57:35.954Z,1005.70
2017-10-21T13:58:35.952Z,1005.67
2017-10-21T13:59:35.951Z,1005.67
2017-10-21T14:00:35.948Z,1005.65
2017-10-21T14:01:35.949Z,1005.73
2017-10-21T14:02:35.948Z,1005.74
2017-10-21T14:03:35.948Z,1005.77
2017-10-21T14:04:35.950Z,1005.74
2017-10-21T14:05:35.946Z,1005.71
2017-10-21T14:06:35.945Z,1005.68
2017-10-21T14:07:35.953Z,1005.73
2017-10-21T14:08:35.945Z,1005.71
2017-10-21T14:09:35.970Z,1005.74
2017-10-21T14:10:38.604Z,1005.74
2017-10-21T14:11:46.919Z,1005.72
2017-10-21T14:12:37.609Z,1005.66
2017-10-21T14:21:27.384Z,1005.68
2017-10-21T14:23:20.270Z,1005.71
2017-10-21T14:24:20.252Z,1005.73
2017-10-21T14:26:13.129Z,1005.72
2017-10-21T14:27:13.122Z,1005.70
2017-10-21T14:29:06.019Z,1005.70
2017-10-21T14:30:05.991Z,1005.69
2017-10-21T14:31:58.872Z,1005.71
2017-10-21T14:32:58.869Z,1005.70
2017-10-21T14:34:51.762Z,1005.70
2017-10-21T14:35:51.750Z,1005.69
2017-10-21T14:37:44.627Z,1005.73
2017-10-21T14:38:44.642Z,1005.71
2017-10-21T14:40:37.501Z,1005.64
2017-10-21T14:41:37.471Z,1005.62
2017-10-21T14:43:30.368Z,1005.60
2017-10-21T14:44:30.339Z,1005.63
2017-10-21T14:46:23.218Z,1005.65
2017-10-21T14:47:23.213Z,1005.68
2017-10-21T14:49:16.110Z,1005.64
2017-10-21T14:50:16.092Z,1005.70
2017-10-21T14:52:08.958Z,1005.71
2017-10-21T14:53:08.956Z,1005.75
2017-10-21T14:55:01.857Z,1005.73
2017-10-21T14:56:01.833Z,1005.76
2017-10-21T14:57:54.696Z,1005.81